sensor_id;sensor_type;location;lat;lon;timestamp;P1;durP1;ratioP1;P2;durP2;ratioP2
27187;SDS011;14708;50.872;5.306;2022-12-29T00:02:12;2.10;;;1.20;;
27187;SDS011;14708;50.872;5.306;2022-12-29T00:04:38;1.83;;;1.15;;
27187;SDS011;14708;50.872;5.306;2022-12-29T00:07:04;6.03;;;1.45;;
27187;SDS011;14708;50.872;5.306;2022-12-29T00:09:30;1.75;;;1.08;;
27187;SDS011;14708;50.872;5.306;2022-12-29T00:11:57;2.88;;;1.17;;
27187;SDS011;14708;50.872;5.306;2022-12-29T00:14:23;2.08;;;1.15;;
27187;SDS011;14708;50.872;5.306;2022-12-29T00:17:07;1.70;;;1.05;;
27187;SDS011;14708;50.872;5.306;2022-12-29T00:19:32;1.80;;;1.10;;
27187;SDS011;14708;50.872;5.306;2022-12-29T00:22:17;1.33;;;0.90;;
27187;SDS011;14708;50.872;5.306;2022-12-29T00:25:01;2.67;;;1.20;;
27187;SDS011;14708;50.872;5.306;2022-12-29T00:27:45;1.52;;;1.00;;
27187;SDS011;14708;50.872;5.306;2022-12-29T00:30:30;2.22;;;1.27;;
27187;SDS011;14708;50.872;5.306;2022-12-29T00:33:15;1.10;;;1.00;;
27187;SDS011;14708;50.872;5.306;2022-12-29T00:36:04;1.10;;;0.90;;
27187;SDS011;14708;50.872;5.306;2022-12-29T00:38:36;1.75;;;1.15;;
27187;SDS011;14708;50.872;5.306;2022-12-29T00:41:23;1.63;;;0.85;;
27187;SDS011;14708;50.872;5.306;2022-12-29T00:44:08;1.55;;;0.85;;
27187;SDS011;14708;50.872;5.306;2022-12-29T00:46:39;1.92;;;1.15;;
27187;SDS011;14708;50.872;5.306;2022-12-29T00:49:07;1.48;;;0.90;;
27187;SDS011;14708;50.872;5.306;2022-12-29T00:51:53;1.23;;;1.10;;
27187;SDS011;14708;50.872;5.306;2022-12-29T00:54:20;2.33;;;1.20;;
27187;SDS011;14708;50.872;5.306;2022-12-29T00:56:46;3.05;;;1.20;;
27187;SDS011;14708;50.872;5.306;2022-12-29T00:59:13;1.33;;;0.98;;
27187;SDS011;14708;50.872;5.306;2022-12-29T01:01:39;1.38;;;1.10;;
27187;SDS011;14708;50.872;5.306;2022-12-29T01:04:05;0.90;;;0.73;;
27187;SDS011;14708;50.872;5.306;2022-12-29T01:06:32;2.05;;;1.27;;
27187;SDS011;14708;50.872;5.306;2022-12-29T01:09:00;1.00;;;0.93;;
27187;SDS011;14708;50.872;5.306;2022-12-29T01:11:44;1.90;;;1.00;;
27187;SDS011;14708;50.872;5.306;2022-12-29T01:14:10;1.38;;;0.95;;
27187;SDS011;14708;50.872;5.306;2022-12-29T01:16:36;1.63;;;1.00;;
27187;SDS011;14708;50.872;5.306;2022-12-29T01:19:01;2.00;;;1.10;;
27187;SDS011;14708;50.872;5.306;2022-12-29T01:21:27;1.15;;;0.85;;
27187;SDS011;14708;50.872;5.306;2022-12-29T01:23:53;2.78;;;1.23;;
27187;SDS011;14708;50.872;5.306;2022-12-29T01:26:19;1.48;;;1.05;;
27187;SDS011;14708;50.872;5.306;2022-12-29T01:28:44;1.95;;;1.05;;
27187;SDS011;14708;50.872;5.306;2022-12-29T01:31:11;1.80;;;1.08;;
27187;SDS011;14708;50.872;5.306;2022-12-29T01:33:38;1.48;;;1.10;;
27187;SDS011;14708;50.872;5.306;2022-12-29T01:36:05;1.85;;;1.10;;
27187;SDS011;14708;50.872;5.306;2022-12-29T01:38:38;1.45;;;0.90;;
27187;SDS011;14708;50.872;5.306;2022-12-29T01:41:05;1.52;;;1.00;;
27187;SDS011;14708;50.872;5.306;2022-12-29T01:43:39;2.47;;;1.13;;
27187;SDS011;14708;50.872;5.306;2022-12-29T01:46:06;3.03;;;1.10;;
27187;SDS011;14708;50.872;5.306;2022-12-29T01:49:08;1.95;;;1.02;;
27187;SDS011;14708;50.872;5.306;2022-12-29T01:51:42;3.08;;;1.33;;
27187;SDS011;14708;50.872;5.306;2022-12-29T01:54:22;1.23;;;0.93;;
27187;SDS011;14708;50.872;5.306;2022-12-29T01:56:57;1.13;;;1.00;;
27187;SDS011;14708;50.872;5.306;2022-12-29T01:59:27;1.27;;;0.82;;
27187;SDS011;14708;50.872;5.306;2022-12-29T02:01:56;1.30;;;1.00;;
27187;SDS011;14708;50.872;5.306;2022-12-29T02:04:23;1.17;;;1.00;;
27187;SDS011;14708;50.872;5.306;2022-12-29T02:06:51;1.75;;;1.10;;
27187;SDS011;14708;50.872;5.306;2022-12-29T02:09:20;1.55;;;1.10;;
27187;SDS011;14708;50.872;5.306;2022-12-29T02:11:46;1.25;;;0.90;;
27187;SDS011;14708;50.872;5.306;2022-12-29T02:14:13;1.20;;;0.90;;
27187;SDS011;14708;50.872;5.306;2022-12-29T02:27:48;1.13;;;1.00;;
27187;SDS011;14708;50.872;5.306;2022-12-29T02:35:44;1.40;;;0.85;;
27187;SDS011;14708;50.872;5.306;2022-12-29T02:46:20;1.13;;;0.88;;
27187;SDS011;14708;50.872;5.306;2022-12-29T02:51:52;1.17;;;0.90;;
27187;SDS011;14708;50.872;5.306;2022-12-29T02:54:38;1.25;;;0.95;;
27187;SDS011;14708;50.872;5.306;2022-12-29T03:00:10;1.17;;;0.90;;
27187;SDS011;14708;50.872;5.306;2022-12-29T03:11:33;1.05;;;0.80;;
27187;SDS011;14708;50.872;5.306;2022-12-29T03:17:29;2.08;;;0.98;;
27187;SDS011;14708;50.872;5.306;2022-12-29T03:20:26;1.85;;;1.20;;
27187;SDS011;14708;50.872;5.306;2022-12-29T03:23:00;0.98;;;0.80;;
27187;SDS011;14708;50.872;5.306;2022-12-29T03:25:29;0.90;;;0.80;;
27187;SDS011;14708;50.872;5.306;2022-12-29T03:30:59;1.98;;;1.10;;
27187;SDS011;14708;50.872;5.306;2022-12-29T03:33:27;1.00;;;0.80;;
27187;SDS011;14708;50.872;5.306;2022-12-29T03:35:56;1.58;;;1.00;;
27187;SDS011;14708;50.872;5.306;2022-12-29T03:38:30;2.13;;;1.08;;
27187;SDS011;14708;50.872;5.306;2022-12-29T03:41:01;0.98;;;0.82;;
27187;SDS011;14708;50.872;5.306;2022-12-29T03:43:30;0.70;;;0.70;;
27187;SDS011;14708;50.872;5.306;2022-12-29T03:45:56;2.28;;;0.77;;
27187;SDS011;14708;50.872;5.306;2022-12-29T03:48:22;1.60;;;1.15;;
27187;SDS011;14708;50.872;5.306;2022-12-29T03:50:48;1.30;;;0.77;;
27187;SDS011;14708;50.872;5.306;2022-12-29T03:53:13;2.00;;;0.95;;
27187;SDS011;14708;50.872;5.306;2022-12-29T03:55:39;0.82;;;0.63;;
27187;SDS011;14708;50.872;5.306;2022-12-29T03:58:04;1.23;;;0.77;;
27187;SDS011;14708;50.872;5.306;2022-12-29T04:00:30;1.38;;;0.73;;
27187;SDS011;14708;50.872;5.306;2022-12-29T04:02:55;1.63;;;1.13;;
27187;SDS011;14708;50.872;5.306;2022-12-29T04:05:21;1.02;;;0.82;;
27187;SDS011;14708;50.872;5.306;2022-12-29T04:07:47;1.10;;;0.90;;
27187;SDS011;14708;50.872;5.306;2022-12-29T04:10:13;1.52;;;0.80;;
27187;SDS011;14708;50.872;5.306;2022-12-29T04:12:38;1.20;;;0.90;;
27187;SDS011;14708;50.872;5.306;2022-12-29T04:15:06;1.50;;;0.90;;
27187;SDS011;14708;50.872;5.306;2022-12-29T04:17:32;1.05;;;0.80;;
27187;SDS011;14708;50.872;5.306;2022-12-29T04:19:58;0.90;;;0.77;;
27187;SDS011;14708;50.872;5.306;2022-12-29T04:22:44;1.10;;;0.90;;
27187;SDS011;14708;50.872;5.306;2022-12-29T04:25:12;1.52;;;0.77;;
27187;SDS011;14708;50.872;5.306;2022-12-29T04:27:37;1.40;;;0.98;;
27187;SDS011;14708;50.872;5.306;2022-12-29T04:30:03;1.20;;;1.10;;
27187;SDS011;14708;50.872;5.306;2022-12-29T04:32:29;1.77;;;0.80;;
27187;SDS011;14708;50.872;5.306;2022-12-29T04:34:55;1.10;;;0.75;;
27187;SDS011;14708;50.872;5.306;2022-12-29T04:37:20;0.80;;;0.77;;
27187;SDS011;14708;50.872;5.306;2022-12-29T04:39:46;1.77;;;0.98;;
27187;SDS011;14708;50.872;5.306;2022-12-29T04:42:11;1.50;;;0.73;;
27187;SDS011;14708;50.872;5.306;2022-12-29T04:44:37;1.27;;;0.60;;
27187;SDS011;14708;50.872;5.306;2022-12-29T04:47:03;1.25;;;0.98;;
27187;SDS011;14708;50.872;5.306;2022-12-29T04:49:28;0.90;;;0.73;;
27187;SDS011;14708;50.872;5.306;2022-12-29T04:51:54;1.23;;;0.80;;
27187;SDS011;14708;50.872;5.306;2022-12-29T04:54:19;1.23;;;0.90;;
27187;SDS011;14708;50.872;5.306;2022-12-29T04:56:45;1.42;;;0.90;;
27187;SDS011;14708;50.872;5.306;2022-12-29T04:59:10;1.60;;;0.75;;
27187;SDS011;14708;50.872;5.306;2022-12-29T05:01:36;1.35;;;0.80;;
27187;SDS011;14708;50.872;5.306;2022-12-29T05:04:02;0.80;;;0.80;;
27187;SDS011;14708;50.872;5.306;2022-12-29T05:06:27;0.93;;;0.68;;
27187;SDS011;14708;50.872;5.306;2022-12-29T05:08:53;1.10;;;0.90;;
27187;SDS011;14708;50.872;5.306;2022-12-29T05:11:18;1.27;;;1.08;;
27187;SDS011;14708;50.872;5.306;2022-12-29T05:13:45;1.02;;;0.70;;
27187;SDS011;14708;50.872;5.306;2022-12-29T05:16:11;1.20;;;0.68;;
27187;SDS011;14708;50.872;5.306;2022-12-29T05:18:39;0.80;;;0.80;;
27187;SDS011;14708;50.872;5.306;2022-12-29T05:21:05;0.90;;;0.70;;
27187;SDS011;14708;50.872;5.306;2022-12-29T05:23:30;0.90;;;0.90;;
27187;SDS011;14708;50.872;5.306;2022-12-29T05:25:56;1.20;;;0.88;;
27187;SDS011;14708;50.872;5.306;2022-12-29T05:28:21;0.70;;;0.65;;
27187;SDS011;14708;50.872;5.306;2022-12-29T05:30:48;1.05;;;0.82;;
27187;SDS011;14708;50.872;5.306;2022-12-29T05:33:15;0.93;;;0.80;;
27187;SDS011;14708;50.872;5.306;2022-12-29T05:35:41;0.80;;;0.77;;
27187;SDS011;14708;50.872;5.306;2022-12-29T05:38:07;0.95;;;0.73;;
27187;SDS011;14708;50.872;5.306;2022-12-29T05:40:32;0.63;;;0.50;;
27187;SDS011;14708;50.872;5.306;2022-12-29T05:42:58;1.10;;;0.68;;
27187;SDS011;14708;50.872;5.306;2022-12-29T05:45:24;1.00;;;0.80;;
27187;SDS011;14708;50.872;5.306;2022-12-29T05:47:49;0.93;;;0.77;;
27187;SDS011;14708;50.872;5.306;2022-12-29T05:50:15;0.70;;;0.70;;
27187;SDS011;14708;50.872;5.306;2022-12-29T05:52:40;0.98;;;0.75;;
27187;SDS011;14708;50.872;5.306;2022-12-29T05:55:06;3.40;;;0.80;;
27187;SDS011;14708;50.872;5.306;2022-12-29T05:57:32;1.10;;;0.80;;
27187;SDS011;14708;50.872;5.306;2022-12-29T05:59:58;1.48;;;0.80;;
27187;SDS011;14708;50.872;5.306;2022-12-29T06:02:23;1.10;;;0.60;;
27187;SDS011;14708;50.872;5.306;2022-12-29T06:04:49;1.25;;;0.70;;
27187;SDS011;14708;50.872;5.306;2022-12-29T06:07:17;0.82;;;0.50;;
27187;SDS011;14708;50.872;5.306;2022-12-29T06:09:44;1.05;;;0.80;;
27187;SDS011;14708;50.872;5.306;2022-12-29T06:12:10;0.77;;;0.70;;
27187;SDS011;14708;50.872;5.306;2022-12-29T06:14:36;0.82;;;0.70;;
27187;SDS011;14708;50.872;5.306;2022-12-29T06:17:01;0.70;;;0.63;;
27187;SDS011;14708;50.872;5.306;2022-12-29T06:19:27;1.60;;;0.88;;
27187;SDS011;14708;50.872;5.306;2022-12-29T06:21:52;0.75;;;0.60;;
27187;SDS011;14708;50.872;5.306;2022-12-29T06:24:18;1.00;;;0.70;;
27187;SDS011;14708;50.872;5.306;2022-12-29T06:26:44;1.00;;;0.82;;
27187;SDS011;14708;50.872;5.306;2022-12-29T06:29:10;0.73;;;0.68;;
27187;SDS011;14708;50.872;5.306;2022-12-29T06:31:36;0.85;;;0.75;;
27187;SDS011;14708;50.872;5.306;2022-12-29T06:34:01;1.23;;;0.90;;
27187;SDS011;14708;50.872;5.306;2022-12-29T06:36:28;0.90;;;0.73;;
27187;SDS011;14708;50.872;5.306;2022-12-29T06:38:53;0.70;;;0.60;;
27187;SDS011;14708;50.872;5.306;2022-12-29T06:41:19;0.60;;;0.60;;
27187;SDS011;14708;50.872;5.306;2022-12-29T06:43:45;3.17;;;0.75;;
27187;SDS011;14708;50.872;5.306;2022-12-29T06:46:11;3.78;;;0.88;;
27187;SDS011;14708;50.872;5.306;2022-12-29T06:48:36;1.67;;;0.80;;
27187;SDS011;14708;50.872;5.306;2022-12-29T06:51:02;0.93;;;0.88;;
27187;SDS011;14708;50.872;5.306;2022-12-29T06:53:28;1.60;;;0.60;;
27187;SDS011;14708;50.872;5.306;2022-12-29T06:55:53;1.83;;;0.60;;
27187;SDS011;14708;50.872;5.306;2022-12-29T06:58:19;0.80;;;0.63;;
27187;SDS011;14708;50.872;5.306;2022-12-29T07:00:45;0.70;;;0.60;;
27187;SDS011;14708;50.872;5.306;2022-12-29T07:03:10;3.03;;;0.90;;
27187;SDS011;14708;50.872;5.306;2022-12-29T07:05:36;1.15;;;0.80;;
27187;SDS011;14708;50.872;5.306;2022-12-29T07:08:01;0.80;;;0.70;;
27187;SDS011;14708;50.872;5.306;2022-12-29T07:10:27;1.23;;;0.80;;
27187;SDS011;14708;50.872;5.306;2022-12-29T07:12:53;1.33;;;0.90;;
27187;SDS011;14708;50.872;5.306;2022-12-29T07:15:18;1.38;;;0.80;;
27187;SDS011;14708;50.872;5.306;2022-12-29T07:17:44;1.70;;;1.05;;
27187;SDS011;14708;50.872;5.306;2022-12-29T07:20:10;2.85;;;0.98;;
27187;SDS011;14708;50.872;5.306;2022-12-29T07:22:35;4.20;;;1.10;;
27187;SDS011;14708;50.872;5.306;2022-12-29T07:25:01;1.23;;;0.80;;
27187;SDS011;14708;50.872;5.306;2022-12-29T07:27:28;1.45;;;1.00;;
27187;SDS011;14708;50.872;5.306;2022-12-29T07:29:53;4.05;;;1.30;;
27187;SDS011;14708;50.872;5.306;2022-12-29T07:32:19;2.75;;;1.27;;
27187;SDS011;14708;50.872;5.306;2022-12-29T07:34:45;88.28;;;17.40;;
27187;SDS011;14708;50.872;5.306;2022-12-29T07:37:12;92.97;;;24.15;;
27187;SDS011;14708;50.872;5.306;2022-12-29T07:39:39;72.63;;;15.80;;
27187;SDS011;14708;50.872;5.306;2022-12-29T07:42:05;44.08;;;9.60;;
27187;SDS011;14708;50.872;5.306;2022-12-29T07:44:30;27.10;;;6.75;;
27187;SDS011;14708;50.872;5.306;2022-12-29T07:46:56;36.47;;;10.02;;
27187;SDS011;14708;50.872;5.306;2022-12-29T07:49:22;41.03;;;9.57;;
27187;SDS011;14708;50.872;5.306;2022-12-29T07:51:50;45.25;;;10.55;;
27187;SDS011;14708;50.872;5.306;2022-12-29T07:54:15;33.22;;;9.50;;
27187;SDS011;14708;50.872;5.306;2022-12-29T07:56:43;36.67;;;9.48;;
27187;SDS011;14708;50.872;5.306;2022-12-29T07:59:09;37.25;;;9.52;;
27187;SDS011;14708;50.872;5.306;2022-12-29T08:01:37;34.25;;;9.70;;
27187;SDS011;14708;50.872;5.306;2022-12-29T08:04:02;30.83;;;9.15;;
27187;SDS011;14708;50.872;5.306;2022-12-29T08:06:28;32.90;;;9.25;;
27187;SDS011;14708;50.872;5.306;2022-12-29T08:08:55;26.73;;;9.02;;
27187;SDS011;14708;50.872;5.306;2022-12-29T08:11:21;31.23;;;8.25;;
27187;SDS011;14708;50.872;5.306;2022-12-29T08:13:47;32.38;;;8.73;;
27187;SDS011;14708;50.872;5.306;2022-12-29T08:16:15;30.48;;;8.85;;
27187;SDS011;14708;50.872;5.306;2022-12-29T08:18:41;34.30;;;10.10;;
27187;SDS011;14708;50.872;5.306;2022-12-29T08:21:06;28.83;;;8.25;;
27187;SDS011;14708;50.872;5.306;2022-12-29T08:23:32;25.00;;;7.88;;
27187;SDS011;14708;50.872;5.306;2022-12-29T08:25:58;35.08;;;8.70;;
27187;SDS011;14708;50.872;5.306;2022-12-29T08:28:24;29.85;;;9.23;;
27187;SDS011;14708;50.872;5.306;2022-12-29T08:30:50;27.88;;;7.88;;
27187;SDS011;14708;50.872;5.306;2022-12-29T08:33:16;28.77;;;8.82;;
27187;SDS011;14708;50.872;5.306;2022-12-29T08:35:42;32.08;;;9.15;;
27187;SDS011;14708;50.872;5.306;2022-12-29T08:38:13;36.90;;;8.82;;
27187;SDS011;14708;50.872;5.306;2022-12-29T08:40:39;31.08;;;7.55;;
27187;SDS011;14708;50.872;5.306;2022-12-29T08:43:04;31.52;;;8.85;;
27187;SDS011;14708;50.872;5.306;2022-12-29T08:45:30;28.83;;;8.93;;
27187;SDS011;14708;50.872;5.306;2022-12-29T08:47:56;33.53;;;9.05;;
27187;SDS011;14708;50.872;5.306;2022-12-29T08:50:22;47.60;;;12.07;;
27187;SDS011;14708;50.872;5.306;2022-12-29T08:52:47;34.80;;;11.63;;
27187;SDS011;14708;50.872;5.306;2022-12-29T08:55:13;39.63;;;12.05;;
27187;SDS011;14708;50.872;5.306;2022-12-29T08:57:38;42.95;;;13.30;;
27187;SDS011;14708;50.872;5.306;2022-12-29T09:00:04;44.75;;;14.38;;
27187;SDS011;14708;50.872;5.306;2022-12-29T09:02:31;42.25;;;14.52;;
27187;SDS011;14708;50.872;5.306;2022-12-29T09:04:56;39.92;;;13.45;;
27187;SDS011;14708;50.872;5.306;2022-12-29T09:07:22;42.60;;;13.52;;
27187;SDS011;14708;50.872;5.306;2022-12-29T09:09:48;47.78;;;13.18;;
27187;SDS011;14708;50.872;5.306;2022-12-29T09:12:15;42.25;;;12.98;;
27187;SDS011;14708;50.872;5.306;2022-12-29T09:14:45;34.95;;;11.40;;
27187;SDS011;14708;50.872;5.306;2022-12-29T09:17:11;38.75;;;12.43;;
27187;SDS011;14708;50.872;5.306;2022-12-29T09:19:55;35.85;;;11.30;;
27187;SDS011;14708;50.872;5.306;2022-12-29T09:22:21;33.45;;;11.45;;
27187;SDS011;14708;50.872;5.306;2022-12-29T09:24:46;40.92;;;13.25;;
27187;SDS011;14708;50.872;5.306;2022-12-29T09:27:12;35.40;;;12.18;;
27187;SDS011;14708;50.872;5.306;2022-12-29T09:29:38;29.60;;;10.70;;
27187;SDS011;14708;50.872;5.306;2022-12-29T09:32:03;37.88;;;11.07;;
27187;SDS011;14708;50.872;5.306;2022-12-29T09:34:29;36.75;;;10.57;;
27187;SDS011;14708;50.872;5.306;2022-12-29T09:36:55;32.92;;;10.32;;
27187;SDS011;14708;50.872;5.306;2022-12-29T09:39:21;33.92;;;10.27;;
27187;SDS011;14708;50.872;5.306;2022-12-29T09:44:43;31.20;;;10.80;;
27187;SDS011;14708;50.872;5.306;2022-12-29T09:47:20;38.35;;;11.30;;
27187;SDS011;14708;50.872;5.306;2022-12-29T09:49:48;29.55;;;9.93;;
27187;SDS011;14708;50.872;5.306;2022-12-29T09:52:22;30.42;;;9.85;;
27187;SDS011;14708;50.872;5.306;2022-12-29T09:54:59;31.73;;;9.90;;
27187;SDS011;14708;50.872;5.306;2022-12-29T10:00:11;28.48;;;10.10;;
27187;SDS011;14708;50.872;5.306;2022-12-29T10:02:52;31.50;;;9.50;;
27187;SDS011;14708;50.872;5.306;2022-12-29T10:05:42;25.83;;;9.45;;
27187;SDS011;14708;50.872;5.306;2022-12-29T10:10:59;22.75;;;8.30;;
27187;SDS011;14708;50.872;5.306;2022-12-29T10:13:43;25.30;;;8.50;;
27187;SDS011;14708;50.872;5.306;2022-12-29T10:16:29;19.08;;;7.88;;
27187;SDS011;14708;50.872;5.306;2022-12-29T10:21:59;20.23;;;7.63;;
27187;SDS011;14708;50.872;5.306;2022-12-29T10:24:42;28.00;;;8.07;;
27187;SDS011;14708;50.872;5.306;2022-12-29T10:27:12;19.43;;;7.00;;
27187;SDS011;14708;50.872;5.306;2022-12-29T10:32:17;21.15;;;7.65;;
27187;SDS011;14708;50.872;5.306;2022-12-29T10:34:54;23.52;;;8.15;;
27187;SDS011;14708;50.872;5.306;2022-12-29T10:40:12;23.15;;;7.47;;
27187;SDS011;14708;50.872;5.306;2022-12-29T10:42:43;18.58;;;7.30;;
27187;SDS011;14708;50.872;5.306;2022-12-29T10:45:13;22.77;;;7.13;;
27187;SDS011;14708;50.872;5.306;2022-12-29T10:50:27;19.08;;;7.00;;
27187;SDS011;14708;50.872;5.306;2022-12-29T10:52:54;22.27;;;7.30;;
27187;SDS011;14708;50.872;5.306;2022-12-29T10:55:33;19.00;;;6.45;;
27187;SDS011;14708;50.872;5.306;2022-12-29T10:58:04;22.10;;;8.20;;
27187;SDS011;14708;50.872;5.306;2022-12-29T11:00:31;21.33;;;6.93;;
27187;SDS011;14708;50.872;5.306;2022-12-29T11:08:42;19.02;;;7.03;;
27187;SDS011;14708;50.872;5.306;2022-12-29T11:11:21;19.08;;;7.30;;
27187;SDS011;14708;50.872;5.306;2022-12-29T11:13:54;20.58;;;6.88;;
27187;SDS011;14708;50.872;5.306;2022-12-29T11:16:31;18.65;;;5.68;;
27187;SDS011;14708;50.872;5.306;2022-12-29T11:18:59;15.57;;;6.43;;
27187;SDS011;14708;50.872;5.306;2022-12-29T11:21:27;14.55;;;5.20;;
27187;SDS011;14708;50.872;5.306;2022-12-29T11:24:20;14.75;;;6.43;;
27187;SDS011;14708;50.872;5.306;2022-12-29T11:26:51;17.98;;;5.80;;
27187;SDS011;14708;50.872;5.306;2022-12-29T11:29:26;18.17;;;6.10;;
27187;SDS011;14708;50.872;5.306;2022-12-29T11:31:54;12.52;;;5.60;;
27187;SDS011;14708;50.872;5.306;2022-12-29T11:34:30;16.90;;;6.18;;
27187;SDS011;14708;50.872;5.306;2022-12-29T11:37:12;14.18;;;5.93;;
27187;SDS011;14708;50.872;5.306;2022-12-29T11:39:52;14.60;;;5.85;;
27187;SDS011;14708;50.872;5.306;2022-12-29T11:42:20;15.45;;;5.93;;
27187;SDS011;14708;50.872;5.306;2022-12-29T11:44:49;17.23;;;5.85;;
27187;SDS011;14708;50.872;5.306;2022-12-29T11:47:27;15.70;;;6.10;;
27187;SDS011;14708;50.872;5.306;2022-12-29T11:50:00;18.05;;;5.45;;
27187;SDS011;14708;50.872;5.306;2022-12-29T11:52:28;19.05;;;6.30;;
27187;SDS011;14708;50.872;5.306;2022-12-29T11:55:00;17.08;;;5.15;;
27187;SDS011;14708;50.872;5.306;2022-12-29T11:57:29;19.58;;;5.30;;
27187;SDS011;14708;50.872;5.306;2022-12-29T12:00:01;15.80;;;5.20;;
27187;SDS011;14708;50.872;5.306;2022-12-29T12:02:44;16.70;;;5.05;;
27187;SDS011;14708;50.872;5.306;2022-12-29T12:05:16;13.95;;;4.03;;
27187;SDS011;14708;50.872;5.306;2022-12-29T12:07:59;11.73;;;4.45;;
27187;SDS011;14708;50.872;5.306;2022-12-29T12:10:29;18.83;;;5.35;;
27187;SDS011;14708;50.872;5.306;2022-12-29T12:13:20;13.32;;;4.63;;
27187;SDS011;14708;50.872;5.306;2022-12-29T12:18:52;12.47;;;4.47;;
27187;SDS011;14708;50.872;5.306;2022-12-29T12:21:45;10.80;;;4.05;;
27187;SDS011;14708;50.872;5.306;2022-12-29T12:29:58;11.15;;;3.85;;
27187;SDS011;14708;50.872;5.306;2022-12-29T12:51:36;12.13;;;4.25;;
27187;SDS011;14708;50.872;5.306;2022-12-29T12:59:36;16.10;;;5.07;;
27187;SDS011;14708;50.872;5.306;2022-12-29T13:02:17;16.95;;;4.40;;
27187;SDS011;14708;50.872;5.306;2022-12-29T13:10:29;44.53;;;12.80;;
27187;SDS011;14708;50.872;5.306;2022-12-29T13:18:22;39.78;;;11.85;;
27187;SDS011;14708;50.872;5.306;2022-12-29T13:23:54;39.03;;;11.23;;
27187;SDS011;14708;50.872;5.306;2022-12-29T13:26:24;30.35;;;9.68;;
27187;SDS011;14708;50.872;5.306;2022-12-29T13:37:08;25.17;;;7.85;;
27187;SDS011;14708;50.872;5.306;2022-12-29T13:39:38;25.65;;;8.57;;
27187;SDS011;14708;50.872;5.306;2022-12-29T13:42:18;23.95;;;7.68;;
27187;SDS011;14708;50.872;5.306;2022-12-29T13:44:47;28.42;;;7.47;;
27187;SDS011;14708;50.872;5.306;2022-12-29T13:47:25;26.25;;;6.85;;
27187;SDS011;14708;50.872;5.306;2022-12-29T13:50:02;26.48;;;7.97;;
27187;SDS011;14708;50.872;5.306;2022-12-29T13:58:01;22.95;;;7.05;;
27187;SDS011;14708;50.872;5.306;2022-12-29T14:03:36;20.85;;;7.20;;
27187;SDS011;14708;50.872;5.306;2022-12-29T14:08:39;21.10;;;6.25;;
27187;SDS011;14708;50.872;5.306;2022-12-29T14:11:11;18.13;;;6.03;;
27187;SDS011;14708;50.872;5.306;2022-12-29T14:13:40;22.85;;;6.20;;
27187;SDS011;14708;50.872;5.306;2022-12-29T14:16:11;26.17;;;6.40;;
27187;SDS011;14708;50.872;5.306;2022-12-29T14:19:11;17.63;;;5.65;;
27187;SDS011;14708;50.872;5.306;2022-12-29T14:21:56;25.35;;;5.57;;
27187;SDS011;14708;50.872;5.306;2022-12-29T14:34:48;14.85;;;5.22;;
27187;SDS011;14708;50.872;5.306;2022-12-29T14:37:25;21.65;;;5.30;;
27187;SDS011;14708;50.872;5.306;2022-12-29T14:42:48;16.45;;;5.43;;
27187;SDS011;14708;50.872;5.306;2022-12-29T14:47:45;18.83;;;5.60;;
27187;SDS011;14708;50.872;5.306;2022-12-29T14:50:14;15.15;;;5.80;;
27187;SDS011;14708;50.872;5.306;2022-12-29T14:58:28;15.93;;;5.20;;
27187;SDS011;14708;50.872;5.306;2022-12-29T15:00:57;15.00;;;5.03;;
27187;SDS011;14708;50.872;5.306;2022-12-29T15:05:56;14.05;;;4.97;;
27187;SDS011;14708;50.872;5.306;2022-12-29T15:08:30;13.10;;;5.20;;
27187;SDS011;14708;50.872;5.306;2022-12-29T15:11:00;14.70;;;5.07;;
27187;SDS011;14708;50.872;5.306;2022-12-29T15:13:43;13.25;;;5.50;;
27187;SDS011;14708;50.872;5.306;2022-12-29T15:16:26;19.25;;;5.32;;
27187;SDS011;14708;50.872;5.306;2022-12-29T15:18:55;19.25;;;4.70;;
27187;SDS011;14708;50.872;5.306;2022-12-29T15:21:25;16.10;;;5.15;;
27187;SDS011;14708;50.872;5.306;2022-12-29T15:23:55;16.67;;;5.35;;
27187;SDS011;14708;50.872;5.306;2022-12-29T15:26:22;14.82;;;4.55;;
27187;SDS011;14708;50.872;5.306;2022-12-29T15:28:49;18.98;;;4.85;;
27187;SDS011;14708;50.872;5.306;2022-12-29T15:31:22;18.13;;;5.47;;
27187;SDS011;14708;50.872;5.306;2022-12-29T15:33:54;10.70;;;4.38;;
27187;SDS011;14708;50.872;5.306;2022-12-29T15:36:27;14.80;;;5.05;;
27187;SDS011;14708;50.872;5.306;2022-12-29T15:38:54;12.32;;;3.10;;
27187;SDS011;14708;50.872;5.306;2022-12-29T15:44:37;10.40;;;4.38;;
27187;SDS011;14708;50.872;5.306;2022-12-29T15:47:17;17.20;;;5.68;;
27187;SDS011;14708;50.872;5.306;2022-12-29T15:49:49;16.75;;;5.85;;
27187;SDS011;14708;50.872;5.306;2022-12-29T15:52:18;24.77;;;6.72;;
27187;SDS011;14708;50.872;5.306;2022-12-29T15:54:45;22.05;;;5.97;;
27187;SDS011;14708;50.872;5.306;2022-12-29T15:57:21;21.52;;;6.22;;
27187;SDS011;14708;50.872;5.306;2022-12-29T16:00:01;24.88;;;6.15;;
27187;SDS011;14708;50.872;5.306;2022-12-29T16:02:28;21.20;;;5.57;;
27187;SDS011;14708;50.872;5.306;2022-12-29T16:04:54;20.33;;;6.25;;
27187;SDS011;14708;50.872;5.306;2022-12-29T16:07:31;21.13;;;5.55;;
27187;SDS011;14708;50.872;5.306;2022-12-29T16:09:59;18.52;;;5.22;;
27187;SDS011;14708;50.872;5.306;2022-12-29T16:12:29;15.32;;;5.85;;
27187;SDS011;14708;50.872;5.306;2022-12-29T16:15:04;19.45;;;6.53;;
27187;SDS011;14708;50.872;5.306;2022-12-29T16:17:33;20.10;;;6.00;;
27187;SDS011;14708;50.872;5.306;2022-12-29T16:20:17;16.77;;;5.50;;
27187;SDS011;14708;50.872;5.306;2022-12-29T16:23:04;20.40;;;5.60;;
27187;SDS011;14708;50.872;5.306;2022-12-29T16:25:31;20.48;;;6.10;;
27187;SDS011;14708;50.872;5.306;2022-12-29T16:30:28;13.88;;;5.03;;
27187;SDS011;14708;50.872;5.306;2022-12-29T16:32:59;18.63;;;5.50;;
27187;SDS011;14708;50.872;5.306;2022-12-29T16:35:27;17.70;;;5.15;;
27187;SDS011;14708;50.872;5.306;2022-12-29T16:40:53;15.70;;;5.13;;
27187;SDS011;14708;50.872;5.306;2022-12-29T16:43:27;17.33;;;5.35;;
27187;SDS011;14708;50.872;5.306;2022-12-29T16:48:25;15.48;;;4.57;;
27187;SDS011;14708;50.872;5.306;2022-12-29T16:50:52;16.40;;;5.23;;
27187;SDS011;14708;50.872;5.306;2022-12-29T16:53:34;14.80;;;5.03;;
27187;SDS011;14708;50.872;5.306;2022-12-29T16:56:06;12.05;;;5.22;;
27187;SDS011;14708;50.872;5.306;2022-12-29T16:58:39;12.60;;;4.88;;
27187;SDS011;14708;50.872;5.306;2022-12-29T17:01:06;12.05;;;4.25;;
27187;SDS011;14708;50.872;5.306;2022-12-29T17:03:40;12.40;;;5.07;;
27187;SDS011;14708;50.872;5.306;2022-12-29T17:06:14;16.20;;;4.50;;
27187;SDS011;14708;50.872;5.306;2022-12-29T17:08:42;12.82;;;4.30;;
27187;SDS011;14708;50.872;5.306;2022-12-29T17:11:20;11.98;;;5.22;;
27187;SDS011;14708;50.872;5.306;2022-12-29T17:20:03;14.82;;;5.05;;
27187;SDS011;14708;50.872;5.306;2022-12-29T17:22:31;11.52;;;4.07;;
27187;SDS011;14708;50.872;5.306;2022-12-29T17:24:58;11.77;;;4.32;;
27187;SDS011;14708;50.872;5.306;2022-12-29T17:29:57;12.55;;;4.35;;
27187;SDS011;14708;50.872;5.306;2022-12-29T17:32:26;10.10;;;4.10;;
27187;SDS011;14708;50.872;5.306;2022-12-29T17:34:52;11.13;;;4.72;;
27187;SDS011;14708;50.872;5.306;2022-12-29T17:39:43;12.13;;;4.40;;
27187;SDS011;14708;50.872;5.306;2022-12-29T17:42:08;10.50;;;3.95;;
27187;SDS011;14708;50.872;5.306;2022-12-29T17:44:35;13.60;;;4.43;;
27187;SDS011;14708;50.872;5.306;2022-12-29T17:47:01;10.95;;;4.47;;
27187;SDS011;14708;50.872;5.306;2022-12-29T17:49:27;11.32;;;4.30;;
27187;SDS011;14708;50.872;5.306;2022-12-29T17:51:52;9.80;;;3.50;;
27187;SDS011;14708;50.872;5.306;2022-12-29T17:54:19;11.95;;;4.30;;
27187;SDS011;14708;50.872;5.306;2022-12-29T17:56:47;12.77;;;4.60;;
27187;SDS011;14708;50.872;5.306;2022-12-29T17:59:13;12.43;;;4.22;;